sensor_id;sensor_type;location;lat;lon;timestamp;pressure;altitude;pressure_sealevel;temperature;humidity
35848;BME280;22332;51.954;20.118;2023-01-29T00:02:03;101119.97;;;-1.04;71.68
35848;BME280;22332;51.954;20.118;2023-01-29T00:05:09;101124.28;;;-1.02;71.64
35848;BME280;22332;51.954;20.118;2023-01-29T00:08:15;101124.77;;;-1.06;70.98
35848;BME280;22332;51.954;20.118;2023-01-29T00:11:21;101125.67;;;-1.02;71.99
35848;BME280;22332;51.954;20.118;2023-01-29T00:14:28;101123.91;;;-0.88;71.63
35848;BME280;22332;51.954;20.118;2023-01-29T00:17:34;101115.86;;;-0.87;70.99
35848;BME280;22332;51.954;20.118;2023-01-29T00:20:43;101101.66;;;-0.81;71.99
35848;BME280;22332;51.954;20.118;2023-01-29T00:23:49;101100.16;;;-0.65;72.08
35848;BME280;22332;51.954;20.118;2023-01-29T00:26:55;101098.48;;;-0.54;71.54
35848;BME280;22332;51.954;20.118;2023-01-29T00:30:01;101097.85;;;-0.60;71.20
35848;BME280;22332;51.954;20.118;2023-01-29T00:33:15;101089.23;;;-0.63;71.83
35848;BME280;22332;51.954;20.118;2023-01-29T00:36:21;101084.17;;;-0.54;72.18
35848;BME280;22332;51.954;20.118;2023-01-29T00:39:27;101081.21;;;-0.46;72.19
35848;BME280;22332;51.954;20.118;2023-01-29T00:42:44;101078.51;;;-0.44;71.87
35848;BME280;22332;51.954;20.118;2023-01-29T00:46:08;101075.46;;;-0.47;71.96
35848;BME280;22332;51.954;20.118;2023-01-29T00:49:13;101066.52;;;-0.46;72.11
35848;BME280;22332;51.954;20.118;2023-01-29T00:52:19;101063.58;;;-0.42;72.14
35848;BME280;22332;51.954;20.118;2023-01-29T00:55:30;101063.61;;;-0.38;72.11
35848;BME280;22332;51.954;20.118;2023-01-29T00:58:36;101068.30;;;-0.37;72.10
35848;BME280;22332;51.954;20.118;2023-01-29T01:01:41;101064.09;;;-0.33;72.13
35848;BME280;22332;51.954;20.118;2023-01-29T01:05:06;101058.30;;;-0.32;72.17
35848;BME280;22332;51.954;20.118;2023-01-29T01:08:17;101057.02;;;-0.31;72.02
35848;BME280;22332;51.954;20.118;2023-01-29T01:11:40;101044.41;;;-0.31;72.03
35848;BME280;22332;51.954;20.118;2023-01-29T01:14:45;101037.11;;;-0.28;72.04
35848;BME280;22332;51.954;20.118;2023-01-29T01:17:54;101025.27;;;-0.25;72.04
35848;BME280;22332;51.954;20.118;2023-01-29T01:21:00;101022.25;;;-0.23;71.92
35848;BME280;22332;51.954;20.118;2023-01-29T01:24:06;101018.89;;;-0.22;71.87
35848;BME280;22332;51.954;20.118;2023-01-29T01:27:12;101007.62;;;-0.21;71.90
35848;BME280;22332;51.954;20.118;2023-01-29T01:30:18;101002.45;;;-0.18;71.85
35848;BME280;22332;51.954;20.118;2023-01-29T01:33:24;101008.50;;;-0.17;71.88
35848;BME280;22332;51.954;20.118;2023-01-29T01:36:31;101011.30;;;-0.17;71.81
35848;BME280;22332;51.954;20.118;2023-01-29T01:39:36;101010.54;;;-0.15;71.82
35848;BME280;22332;51.954;20.118;2023-01-29T01:42:42;101013.31;;;-0.15;71.70
35848;BME280;22332;51.954;20.118;2023-01-29T01:45:49;101018.15;;;-0.13;71.69
35848;BME280;22332;51.954;20.118;2023-01-29T01:48:57;101014.81;;;-0.17;71.21
35848;BME280;22332;51.954;20.118;2023-01-29T01:52:08;101017.61;;;-0.21;71.31
35848;BME280;22332;51.954;20.118;2023-01-29T01:55:18;101014.05;;;-0.24;71.22
35848;BME280;22332;51.954;20.118;2023-01-29T01:58:30;101012.83;;;-0.24;71.47
35848;BME280;22332;51.954;20.118;2023-01-29T02:01:36;101014.02;;;-0.23;71.54
35848;BME280;22332;51.954;20.118;2023-01-29T02:04:48;101014.31;;;-0.22;71.51
35848;BME280;22332;51.954;20.118;2023-01-29T02:08:12;101011.39;;;-0.23;71.19
35848;BME280;22332;51.954;20.118;2023-01-29T02:11:38;101012.67;;;-0.25;71.37
35848;BME280;22332;51.954;20.118;2023-01-29T02:14:44;101017.35;;;-0.24;71.36
35848;BME280;22332;51.954;20.118;2023-01-29T02:17:50;101019.33;;;-0.25;71.17
35848;BME280;22332;51.954;20.118;2023-01-29T02:21:11;101018.98;;;-0.25;71.22
35848;BME280;22332;51.954;20.118;2023-01-29T02:24:55;101021.80;;;-0.30;70.90
35848;BME280;22332;51.954;20.118;2023-01-29T02:28:19;101022.79;;;-0.32;71.08
35848;BME280;22332;51.954;20.118;2023-01-29T02:31:33;101028.52;;;-0.31;71.22
35848;BME280;22332;51.954;20.118;2023-01-29T02:34:51;101018.16;;;-0.30;71.38
35848;BME280;22332;51.954;20.118;2023-01-29T02:38:24;101013.65;;;-0.27;71.10
35848;BME280;22332;51.954;20.118;2023-01-29T02:41:34;101013.05;;;-0.29;71.04
35848;BME280;22332;51.954;20.118;2023-01-29T02:44:47;101012.04;;;-0.30;71.18
35848;BME280;22332;51.954;20.118;2023-01-29T02:47:58;101007.73;;;-0.28;71.17
35848;BME280;22332;51.954;20.118;2023-01-29T02:51:07;100999.69;;;-0.27;70.85
35848;BME280;22332;51.954;20.118;2023-01-29T02:54:22;100992.21;;;-0.28;71.22
35848;BME280;22332;51.954;20.118;2023-01-29T02:57:31;100986.53;;;-0.26;71.18
35848;BME280;22332;51.954;20.118;2023-01-29T03:00:41;100980.34;;;-0.25;71.19
35848;BME280;22332;51.954;20.118;2023-01-29T03:03:52;100981.69;;;-0.23;71.07
35848;BME280;22332;51.954;20.118;2023-01-29T03:07:02;100987.59;;;-0.22;71.24
35848;BME280;22332;51.954;20.118;2023-01-29T03:10:14;100982.23;;;-0.24;71.08
35848;BME280;22332;51.954;20.118;2023-01-29T03:13:28;100976.13;;;-0.25;71.04
35848;BME280;22332;51.954;20.118;2023-01-29T03:16:38;100969.84;;;-0.25;71.04
35848;BME280;22332;51.954;20.118;2023-01-29T03:19:47;100967.19;;;-0.24;70.84
35848;BME280;22332;51.954;20.118;2023-01-29T03:23:05;100963.34;;;-0.24;70.92
35848;BME280;22332;51.954;20.118;2023-01-29T03:26:16;100963.75;;;-0.25;70.86
35848;BME280;22332;51.954;20.118;2023-01-29T03:29:42;100966.05;;;-0.22;71.18
35848;BME280;22332;51.954;20.118;2023-01-29T03:33:24;100972.23;;;-0.19;70.97
35848;BME280;22332;51.954;20.118;2023-01-29T03:36:35;100978.98;;;-0.17;71.01
35848;BME280;22332;51.954;20.118;2023-01-29T03:39:43;100972.00;;;-0.14;70.95
35848;BME280;22332;51.954;20.118;2023-01-29T03:43:02;100963.40;;;-0.13;70.99
35848;BME280;22332;51.954;20.118;2023-01-29T03:46:12;100960.73;;;-0.12;70.89
35848;BME280;22332;51.954;20.118;2023-01-29T03:49:31;100972.80;;;-0.12;71.00
35848;BME280;22332;51.954;20.118;2023-01-29T03:52:43;100971.07;;;-0.12;70.96
35848;BME280;22332;51.954;20.118;2023-01-29T03:55:57;100968.98;;;-0.13;70.94
35848;BME280;22332;51.954;20.118;2023-01-29T03:59:09;100966.05;;;-0.13;70.88
35848;BME280;22332;51.954;20.118;2023-01-29T04:02:41;100966.57;;;-0.14;70.94
35848;BME280;22332;51.954;20.118;2023-01-29T04:05:52;100967.11;;;-0.14;70.96
35848;BME280;22332;51.954;20.118;2023-01-29T04:09:08;100966.33;;;-0.16;70.65
35848;BME280;22332;51.954;20.118;2023-01-29T04:12:20;100959.36;;;-0.17;70.87
35848;BME280;22332;51.954;20.118;2023-01-29T04:15:32;100954.59;;;-0.16;70.89
35848;BME280;22332;51.954;20.118;2023-01-29T04:18:39;100948.73;;;-0.17;70.71
35848;BME280;22332;51.954;20.118;2023-01-29T04:21:52;100949.59;;;-0.21;70.78
35848;BME280;22332;51.954;20.118;2023-01-29T04:25:04;100950.27;;;-0.25;70.92
35848;BME280;22332;51.954;20.118;2023-01-29T04:28:18;100940.80;;;-0.24;70.97
35848;BME280;22332;51.954;20.118;2023-01-29T04:31:30;100937.52;;;-0.25;70.96
35848;BME280;22332;51.954;20.118;2023-01-29T04:34:48;100938.70;;;-0.24;70.94
35848;BME280;22332;51.954;20.118;2023-01-29T04:38:05;100938.19;;;-0.24;71.04
35848;BME280;22332;51.954;20.118;2023-01-29T04:41:18;100941.54;;;-0.25;71.05
35848;BME280;22332;51.954;20.118;2023-01-29T04:44:31;100928.69;;;-0.27;70.98
35848;BME280;22332;51.954;20.118;2023-01-29T04:47:39;100926.84;;;-0.29;70.97
35848;BME280;22332;51.954;20.118;2023-01-29T04:50:55;100929.49;;;-0.29;70.84
35848;BME280;22332;51.954;20.118;2023-01-29T04:54:07;100925.66;;;-0.34;70.96
35848;BME280;22332;51.954;20.118;2023-01-29T04:57:21;100918.16;;;-0.34;71.05
35848;BME280;22332;51.954;20.118;2023-01-29T05:00:32;100917.30;;;-0.31;71.03
35848;BME280;22332;51.954;20.118;2023-01-29T05:03:41;100915.79;;;-0.28;70.88
35848;BME280;22332;51.954;20.118;2023-01-29T05:06:48;100911.52;;;-0.19;70.99
35848;BME280;22332;51.954;20.118;2023-01-29T05:09:55;100905.05;;;-0.07;70.99
35848;BME280;22332;51.954;20.118;2023-01-29T05:13:02;100906.11;;;0.05;70.87
35848;BME280;22332;51.954;20.118;2023-01-29T05:16:12;100911.02;;;0.12;70.91
35848;BME280;22332;51.954;20.118;2023-01-29T05:19:19;100911.09;;;0.15;70.48
35848;BME280;22332;51.954;20.118;2023-01-29T05:22:25;100919.86;;;0.14;70.67
35848;BME280;22332;51.954;20.118;2023-01-29T05:25:33;100919.66;;;0.15;70.46
35848;BME280;22332;51.954;20.118;2023-01-29T05:28:39;100913.15;;;0.12;70.67
35848;BME280;22332;51.954;20.118;2023-01-29T05:31:45;100913.56;;;0.10;70.66
35848;BME280;22332;51.954;20.118;2023-01-29T05:34:51;100908.77;;;0.08;70.46
35848;BME280;22332;51.954;20.118;2023-01-29T05:37:57;100908.79;;;0.04;70.58
35848;BME280;22332;51.954;20.118;2023-01-29T05:41:02;100909.89;;;0.03;70.35
35848;BME280;22332;51.954;20.118;2023-01-29T05:44:09;100906.23;;;0.02;70.61
35848;BME280;22332;51.954;20.118;2023-01-29T05:47:19;100900.08;;;-0.01;70.40
35848;BME280;22332;51.954;20.118;2023-01-29T05:50:25;100901.39;;;-0.07;70.44
35848;BME280;22332;51.954;20.118;2023-01-29T05:53:32;100902.94;;;-0.10;70.42
35848;BME280;22332;51.954;20.118;2023-01-29T05:56:37;100900.64;;;-0.13;70.39
35848;BME280;22332;51.954;20.118;2023-01-29T05:59:43;100894.94;;;-0.15;70.45
35848;BME280;22332;51.954;20.118;2023-01-29T06:02:58;100893.23;;;-0.16;70.45
35848;BME280;22332;51.954;20.118;2023-01-29T06:06:05;100890.95;;;-0.20;70.40
35848;BME280;22332;51.954;20.118;2023-01-29T06:09:11;100887.50;;;-0.25;70.41
35848;BME280;22332;51.954;20.118;2023-01-29T06:12:17;100883.03;;;-0.26;70.48
35848;BME280;22332;51.954;20.118;2023-01-29T06:15:23;100886.10;;;-0.28;70.62
35848;BME280;22332;51.954;20.118;2023-01-29T06:18:29;100888.30;;;-0.31;70.64
35848;BME280;22332;51.954;20.118;2023-01-29T06:21:35;100886.75;;;-0.31;70.43
35848;BME280;22332;51.954;20.118;2023-01-29T06:24:40;100888.23;;;-0.33;70.50
35848;BME280;22332;51.954;20.118;2023-01-29T06:27:46;100892.73;;;-0.36;70.53
35848;BME280;22332;51.954;20.118;2023-01-29T06:30:57;100900.54;;;-0.39;70.59
35848;BME280;22332;51.954;20.118;2023-01-29T06:34:03;100901.14;;;-0.41;70.40
35848;BME280;22332;51.954;20.118;2023-01-29T06:37:09;100898.20;;;-0.42;70.54
35848;BME280;22332;51.954;20.118;2023-01-29T06:40:15;100896.31;;;-0.43;70.43
35848;BME280;22332;51.954;20.118;2023-01-29T06:43:21;100897.85;;;-0.42;70.49
35848;BME280;22332;51.954;20.118;2023-01-29T06:46:27;100899.80;;;-0.42;70.36
35848;BME280;22332;51.954;20.118;2023-01-29T06:49:32;100906.48;;;-0.39;70.59
35848;BME280;22332;51.954;20.118;2023-01-29T06:52:38;100910.19;;;-0.35;70.55
35848;BME280;22332;51.954;20.118;2023-01-29T06:55:45;100907.44;;;-0.33;70.55
35848;BME280;22332;51.954;20.118;2023-01-29T06:58:55;100907.71;;;-0.27;70.43
35848;BME280;22332;51.954;20.118;2023-01-29T07:02:01;100903.05;;;-0.24;70.47
35848;BME280;22332;51.954;20.118;2023-01-29T07:05:08;100903.31;;;-0.22;70.45
35848;BME280;22332;51.954;20.118;2023-01-29T07:08:16;100911.92;;;-0.23;70.12
35848;BME280;22332;51.954;20.118;2023-01-29T07:11:26;100910.54;;;-0.24;70.05
35848;BME280;22332;51.954;20.118;2023-01-29T07:14:32;100900.79;;;-0.21;70.50
35848;BME280;22332;51.954;20.118;2023-01-29T07:17:38;100887.09;;;-0.15;70.43
35848;BME280;22332;51.954;20.118;2023-01-29T07:20:43;100888.41;;;-0.10;70.32
35848;BME280;22332;51.954;20.118;2023-01-29T07:23:49;100893.91;;;-0.08;70.15
35848;BME280;22332;51.954;20.118;2023-01-29T07:26:54;100903.17;;;-0.08;69.95
35848;BME280;22332;51.954;20.118;2023-01-29T07:30:00;100911.35;;;-0.07;70.02
35848;BME280;22332;51.954;20.118;2023-01-29T07:33:07;100909.35;;;-0.05;70.03
35848;BME280;22332;51.954;20.118;2023-01-29T07:36:13;100905.31;;;-0.00;70.32
35848;BME280;22332;51.954;20.118;2023-01-29T07:39:19;100904.12;;;0.06;70.27
35848;BME280;22332;51.954;20.118;2023-01-29T07:42:25;100900.66;;;0.09;70.22
35848;BME280;22332;51.954;20.118;2023-01-29T07:45:32;100891.50;;;0.14;70.03
35848;BME280;22332;51.954;20.118;2023-01-29T07:48:40;100895.77;;;0.17;69.93
35848;BME280;22332;51.954;20.118;2023-01-29T07:51:48;100897.33;;;0.21;70.17
35848;BME280;22332;51.954;20.118;2023-01-29T07:54:53;100896.91;;;0.26;69.99
35848;BME280;22332;51.954;20.118;2023-01-29T07:58:02;100890.41;;;0.30;70.22
35848;BME280;22332;51.954;20.118;2023-01-29T08:01:10;100886.77;;;0.33;70.11
35848;BME280;22332;51.954;20.118;2023-01-29T08:04:19;100885.42;;;0.40;70.13
35848;BME280;22332;51.954;20.118;2023-01-29T08:07:25;100885.82;;;0.46;70.15
35848;BME280;22332;51.954;20.118;2023-01-29T08:10:31;100890.41;;;0.53;69.96
35848;BME280;22332;51.954;20.118;2023-01-29T08:13:36;100891.44;;;0.57;69.94
35848;BME280;22332;51.954;20.118;2023-01-29T08:16:42;100885.20;;;0.63;70.13
35848;BME280;22332;51.954;20.118;2023-01-29T08:19:47;100878.34;;;0.67;70.03
35848;BME280;22332;51.954;20.118;2023-01-29T08:23:00;100880.88;;;0.73;69.93
35848;BME280;22332;51.954;20.118;2023-01-29T08:26:06;100873.71;;;0.76;69.70
35848;BME280;22332;51.954;20.118;2023-01-29T08:29:13;100870.44;;;0.82;69.87
35848;BME280;22332;51.954;20.118;2023-01-29T08:32:28;100866.84;;;0.84;69.47
35848;BME280;22332;51.954;20.118;2023-01-29T08:35:37;100863.81;;;0.89;69.71
35848;BME280;22332;51.954;20.118;2023-01-29T08:38:44;100853.83;;;0.95;69.79
35848;BME280;22332;51.954;20.118;2023-01-29T08:41:55;100850.02;;;0.98;69.74
35848;BME280;22332;51.954;20.118;2023-01-29T08:45:09;100858.56;;;1.03;69.58
35848;BME280;22332;51.954;20.118;2023-01-29T08:48:18;100862.72;;;1.07;69.75
35848;BME280;22332;51.954;20.118;2023-01-29T08:51:34;100861.98;;;1.18;69.50
35848;BME280;22332;51.954;20.118;2023-01-29T08:54:43;100857.87;;;1.27;69.47
35848;BME280;22332;51.954;20.118;2023-01-29T08:57:50;100852.77;;;1.37;69.31
35848;BME280;22332;51.954;20.118;2023-01-29T09:00:56;100848.84;;;1.42;69.54
35848;BME280;22332;51.954;20.118;2023-01-29T09:04:09;100842.92;;;1.55;69.75
35848;BME280;22332;51.954;20.118;2023-01-29T09:07:14;100829.40;;;1.62;69.50
35848;BME280;22332;51.954;20.118;2023-01-29T09:10:20;100827.05;;;1.70;69.66
35848;BME280;22332;51.954;20.118;2023-01-29T09:13:26;100819.64;;;1.77;69.49
35848;BME280;22332;51.954;20.118;2023-01-29T09:16:31;100826.27;;;1.81;69.51
35848;BME280;22332;51.954;20.118;2023-01-29T09:19:37;100826.83;;;1.84;69.24
35848;BME280;22332;51.954;20.118;2023-01-29T09:22:43;100824.56;;;1.90;69.58
35848;BME280;22332;51.954;20.118;2023-01-29T09:25:48;100818.41;;;1.97;69.47
35848;BME280;22332;51.954;20.118;2023-01-29T09:28:55;100813.69;;;2.03;69.28
35848;BME280;22332;51.954;20.118;2023-01-29T09:32:01;100815.59;;;2.06;68.77
35848;BME280;22332;51.954;20.118;2023-01-29T09:35:07;100811.52;;;2.04;69.34
35848;BME280;22332;51.954;20.118;2023-01-29T09:38:13;100810.58;;;2.08;69.12
35848;BME280;22332;51.954;20.118;2023-01-29T09:41:29;100805.48;;;2.08;69.42
35848;BME280;22332;51.954;20.118;2023-01-29T09:44:47;100796.59;;;2.10;69.33
35848;BME280;22332;51.954;20.118;2023-01-29T09:48:00;100792.42;;;2.06;69.33
35848;BME280;22332;51.954;20.118;2023-01-29T09:51:13;100789.80;;;2.03;69.66
35848;BME280;22332;51.954;20.118;2023-01-29T09:54:23;100789.02;;;2.05;69.39
35848;BME280;22332;51.954;20.118;2023-01-29T09:57:36;100788.86;;;2.04;69.95
35848;BME280;22332;51.954;20.118;2023-01-29T10:00:50;100792.98;;;2.09;69.80
35848;BME280;22332;51.954;20.118;2023-01-29T10:04:12;100792.89;;;2.08;69.63
35848;BME280;22332;51.954;20.118;2023-01-29T10:07:40;100783.30;;;2.00;69.90
35848;BME280;22332;51.954;20.118;2023-01-29T10:10:51;100780.56;;;2.02;70.02
35848;BME280;22332;51.954;20.118;2023-01-29T10:14:10;100778.69;;;2.07;70.12
35848;BME280;22332;51.954;20.118;2023-01-29T10:17:33;100772.63;;;2.09;70.50
35848;BME280;22332;51.954;20.118;2023-01-29T10:20:51;100764.82;;;2.13;70.52
35848;BME280;22332;51.954;20.118;2023-01-29T10:24:09;100759.91;;;2.14;70.45
35848;BME280;22332;51.954;20.118;2023-01-29T10:27:19;100758.56;;;2.15;70.53
35848;BME280;22332;51.954;20.118;2023-01-29T10:30:32;100757.11;;;2.20;70.79
35848;BME280;22332;51.954;20.118;2023-01-29T10:33:41;100760.02;;;2.21;71.02
35848;BME280;22332;51.954;20.118;2023-01-29T10:36:48;100762.91;;;2.28;70.90
35848;BME280;22332;51.954;20.118;2023-01-29T10:39:59;100756.44;;;2.37;70.97
35848;BME280;22332;51.954;20.118;2023-01-29T10:43:10;100754.48;;;2.34;70.85
35848;BME280;22332;51.954;20.118;2023-01-29T10:46:17;100754.29;;;2.29;71.14
35848;BME280;22332;51.954;20.118;2023-01-29T10:49:40;100756.31;;;2.33;71.34
35848;BME280;22332;51.954;20.118;2023-01-29T10:53:02;100752.25;;;2.37;71.39
35848;BME280;22332;51.954;20.118;2023-01-29T10:56:31;100743.59;;;2.34;71.57
35848;BME280;22332;51.954;20.118;2023-01-29T11:00:01;100740.25;;;2.32;71.72
35848;BME280;22332;51.954;20.118;2023-01-29T11:03:21;100737.98;;;2.29;71.85
35848;BME280;22332;51.954;20.118;2023-01-29T11:06:29;100735.31;;;2.29;72.15
35848;BME280;22332;51.954;20.118;2023-01-29T11:09:40;100732.30;;;2.30;72.32
35848;BME280;22332;51.954;20.118;2023-01-29T11:12:50;100731.64;;;2.35;72.51
35848;BME280;22332;51.954;20.118;2023-01-29T11:15:56;100732.87;;;2.45;72.44
35848;BME280;22332;51.954;20.118;2023-01-29T11:19:02;100724.85;;;2.47;72.55
35848;BME280;22332;51.954;20.118;2023-01-29T11:22:13;100714.30;;;2.47;72.76
35848;BME280;22332;51.954;20.118;2023-01-29T11:25:21;100707.27;;;2.53;72.69
35848;BME280;22332;51.954;20.118;2023-01-29T11:28:46;100706.94;;;2.61;72.83
35848;BME280;22332;51.954;20.118;2023-01-29T11:31:53;100699.28;;;2.72;72.63
35848;BME280;22332;51.954;20.118;2023-01-29T11:35:01;100693.58;;;2.80;72.67
35848;BME280;22332;51.954;20.118;2023-01-29T11:38:15;100688.96;;;2.83;72.54
35848;BME280;22332;51.954;20.118;2023-01-29T11:41:23;100680.98;;;2.79;72.58
35848;BME280;22332;51.954;20.118;2023-01-29T11:44:31;100672.04;;;2.75;72.63
35848;BME280;22332;51.954;20.118;2023-01-29T11:47:37;100661.52;;;2.74;72.68
35848;BME280;22332;51.954;20.118;2023-01-29T11:50:43;100655.77;;;2.74;72.70
35848;BME280;22332;51.954;20.118;2023-01-29T11:53:56;100654.47;;;2.58;72.58
35848;BME280;22332;51.954;20.118;2023-01-29T11:57:04;100655.38;;;2.42;72.65
35848;BME280;22332;51.954;20.118;2023-01-29T12:00:19;100649.33;;;2.29;72.70
35848;BME280;22332;51.954;20.118;2023-01-29T12:03:34;100644.48;;;2.19;72.98
35848;BME280;22332;51.954;20.118;2023-01-29T12:06:44;100639.04;;;2.19;73.11
35848;BME280;22332;51.954;20.118;2023-01-29T12:09:57;100621.05;;;2.20;73.12
35848;BME280;22332;51.954;20.118;2023-01-29T12:13:17;100617.96;;;2.25;73.01
35848;BME280;22332;51.954;20.118;2023-01-29T12:16:30;100613.73;;;2.37;73.24
35848;BME280;22332;51.954;20.118;2023-01-29T12:19:41;100614.11;;;2.40;72.85
35848;BME280;22332;51.954;20.118;2023-01-29T12:22:52;100607.64;;;2.42;73.20
35848;BME280;22332;51.954;20.118;2023-01-29T12:25:59;100604.37;;;2.44;73.12
35848;BME280;22332;51.954;20.118;2023-01-29T12:29:16;100601.16;;;2.45;73.08
35848;BME280;22332;51.954;20.118;2023-01-29T12:32:31;100595.99;;;2.40;73.13
35848;BME280;22332;51.954;20.118;2023-01-29T12:35:45;100594.91;;;2.37;73.10
35848;BME280;22332;51.954;20.118;2023-01-29T12:38:52;100586.16;;;2.37;73.12
35848;BME280;22332;51.954;20.118;2023-01-29T12:42:01;100585.73;;;2.32;72.96
35848;BME280;22332;51.954;20.118;2023-01-29T12:45:16;100573.34;;;2.26;73.13
35848;BME280;22332;51.954;20.118;2023-01-29T12:48:26;100575.98;;;2.17;73.00
35848;BME280;22332;51.954;20.118;2023-01-29T12:51:38;100576.33;;;2.08;73.17
35848;BME280;22332;51.954;20.118;2023-01-29T12:54:51;100573.35;;;1.99;73.12
35848;BME280;22332;51.954;20.118;2023-01-29T12:57:59;100578.24;;;1.93;73.36
35848;BME280;22332;51.954;20.118;2023-01-29T13:01:12;100572.31;;;1.83;73.27
35848;BME280;22332;51.954;20.118;2023-01-29T13:04:29;100564.25;;;1.74;73.66
35848;BME280;22332;51.954;20.118;2023-01-29T13:07:41;100567.16;;;1.78;73.73
35848;BME280;22332;51.954;20.118;2023-01-29T13:10:51;100567.05;;;1.83;73.72
35848;BME280;22332;51.954;20.118;2023-01-29T13:14:00;100568.92;;;1.87;73.78
35848;BME280;22332;51.954;20.118;2023-01-29T13:17:11;100577.80;;;1.85;73.74
35848;BME280;22332;51.954;20.118;2023-01-29T13:20:24;100563.86;;;1.78;73.63
35848;BME280;22332;51.954;20.118;2023-01-29T13:23:35;100561.17;;;1.76;73.71
35848;BME280;22332;51.954;20.118;2023-01-29T13:26:44;100562.84;;;1.74;73.65
35848;BME280;22332;51.954;20.118;2023-01-29T13:29:51;100561.13;;;1.71;73.82
35848;BME280;22332;51.954;20.118;2023-01-29T13:32:59;100561.04;;;1.66;73.88
35848;BME280;22332;51.954;20.118;2023-01-29T13:36:22;100567.48;;;1.64;74.10
35848;BME280;22332;51.954;20.118;2023-01-29T13:39:31;100571.98;;;1.58;74.13
35848;BME280;22332;51.954;20.118;2023-01-29T13:42:41;100573.11;;;1.57;74.30
35848;BME280;22332;51.954;20.118;2023-01-29T13:45:50;100573.14;;;1.53;74.42
35848;BME280;22332;51.954;20.118;2023-01-29T13:48:57;100567.35;;;1.60;74.67
35848;BME280;22332;51.954;20.118;2023-01-29T13:52:33;100559.61;;;1.63;74.49
35848;BME280;22332;51.954;20.118;2023-01-29T13:55:41;100560.36;;;1.71;74.59
35848;BME280;22332;51.954;20.118;2023-01-29T13:58:57;100560.27;;;1.73;74.75
35848;BME280;22332;51.954;20.118;2023-01-29T14:02:17;100556.36;;;1.65;74.88
35848;BME280;22332;51.954;20.118;2023-01-29T14:05:41;100551.48;;;1.61;75.27
35848;BME280;22332;51.954;20.118;2023-01-29T14:08:45;100553.75;;;1.56;75.14
35848;BME280;22332;51.954;20.118;2023-01-29T14:11:53;100558.63;;;1.50;75.67
35848;BME280;22332;51.954;20.118;2023-01-29T14:15:13;100556.91;;;1.43;75.86
35848;BME280;22332;51.954;20.118;2023-01-29T14:18:20;100570.77;;;1.37;75.88
35848;BME280;22332;51.954;20.118;2023-01-29T14:21:30;100570.88;;;1.34;75.90
35848;BME280;22332;51.954;20.118;2023-01-29T14:24:37;100564.56;;;1.41;76.11
35848;BME280;22332;51.954;20.118;2023-01-29T14:27:48;100566.29;;;1.45;76.15
35848;BME280;22332;51.954;20.118;2023-01-29T14:30:55;100568.31;;;1.49;76.19
35848;BME280;22332;51.954;20.118;2023-01-29T14:34:05;100566.04;;;1.49;76.43
35848;BME280;22332;51.954;20.118;2023-01-29T14:37:20;100544.29;;;1.46;76.35
35848;BME280;22332;51.954;20.118;2023-01-29T14:40:30;100528.63;;;1.50;76.32
35848;BME280;22332;51.954;20.118;2023-01-29T14:43:38;100528.98;;;1.47;76.40
35848;BME280;22332;51.954;20.118;2023-01-29T14:46:45;100541.38;;;1.39;76.49
35848;BME280;22332;51.954;20.118;2023-01-29T14:49:52;100538.92;;;1.33;76.36
35848;BME280;22332;51.954;20.118;2023-01-29T14:53:02;100535.81;;;1.29;76.48
35848;BME280;22332;51.954;20.118;2023-01-29T14:56:16;100538.59;;;1.29;76.55
35848;BME280;22332;51.954;20.118;2023-01-29T14:59:25;100538.26;;;1.29;76.74
35848;BME280;22332;51.954;20.118;2023-01-29T15:02:40;100532.84;;;1.31;76.77
35848;BME280;22332;51.954;20.118;2023-01-29T15:05:49;100527.82;;;1.40;76.90
35848;BME280;22332;51.954;20.118;2023-01-29T15:09:02;100532.04;;;1.45;76.85
35848;BME280;22332;51.954;20.118;2023-01-29T15:12:19;100530.36;;;1.48;76.86
35848;BME280;22332;51.954;20.118;2023-01-29T15:15:34;100537.13;;;1.43;76.93
35848;BME280;22332;51.954;20.118;2023-01-29T15:18:42;100546.98;;;1.39;77.11
35848;BME280;22332;51.954;20.118;2023-01-29T15:22:06;100548.24;;;1.35;76.96
35848;BME280;22332;51.954;20.118;2023-01-29T15:25:14;100546.45;;;1.29;77.03
35848;BME280;22332;51.954;20.118;2023-01-29T15:28:22;100538.97;;;1.23;77.36
35848;BME280;22332;51.954;20.118;2023-01-29T15:31:28;100527.52;;;1.10;77.26
35848;BME280;22332;51.954;20.118;2023-01-29T15:34:34;100524.77;;;1.07;77.49
35848;BME280;22332;51.954;20.118;2023-01-29T15:37:40;100520.92;;;1.07;77.43
35848;BME280;22332;51.954;20.118;2023-01-29T15:40:53;100516.96;;;1.11;77.45
35848;BME280;22332;51.954;20.118;2023-01-29T15:44:00;100512.18;;;1.19;77.38
35848;BME280;22332;51.954;20.118;2023-01-29T15:47:07;100513.77;;;1.25;77.40
35848;BME280;22332;51.954;20.118;2023-01-29T15:50:14;100512.79;;;1.33;77.19
35848;BME280;22332;51.954;20.118;2023-01-29T15:53:22;100505.98;;;1.38;77.28
35848;BME280;22332;51.954;20.118;2023-01-29T15:56:36;100506.94;;;1.40;77.39
35848;BME280;22332;51.954;20.118;2023-01-29T15:59:44;100499.94;;;1.34;77.20
35848;BME280;22332;51.954;20.118;2023-01-29T16:02:55;100498.09;;;1.33;77.30
35848;BME280;22332;51.954;20.118;2023-01-29T16:06:01;100498.57;;;1.30;77.16
35848;BME280;22332;51.954;20.118;2023-01-29T16:09:14;100497.44;;;1.26;77.36
35848;BME280;22332;51.954;20.118;2023-01-29T16:12:22;100495.63;;;1.20;77.58
35848;BME280;22332;51.954;20.118;2023-01-29T16:15:35;100494.60;;;1.16;77.64
35848;BME280;22332;51.954;20.118;2023-01-29T16:18:42;100495.05;;;1.18;77.56
35848;BME280;22332;51.954;20.118;2023-01-29T16:21:56;100497.90;;;1.23;77.68
35848;BME280;22332;51.954;20.118;2023-01-29T16:25:12;100501.70;;;1.31;77.65
35848;BME280;22332;51.954;20.118;2023-01-29T16:28:20;100503.27;;;1.34;77.60
35848;BME280;22332;51.954;20.118;2023-01-29T16:31:27;100501.84;;;1.34;77.61